Terminal Aerodrome Forecast
Issued by NWS Northern Indiana

Home | Current Version | Previous Version | Text Only | Print | Product List | Glossary Off
Versions: 1 2 3 4 5 6 7 8 9 10 11 12 13 14 15 16 17 18 19

000
FTUS43 KIWX 291047 AAA
TAFFWA
TAF AMD
KFWA 291047Z 2911/3006 05004KT P6SM SCT012 BKN025
      TEMPO 2911/2912 6SM -DZ BR OVC012
     FM291200 01003KT 4SM BR OVC004
     FM291400 03004KT P6SM OVC010
     FM291800 04005KT P6SM BKN025=

USA.gov is the U.S. government's official web portal to all federal, state and local government web resources and services.